sensor_id;sensor_type;location;lat;lon;timestamp;P1;durP1;ratioP1;P2;durP2;ratioP2
50789;SDS011;37287;47.554;7.844;2023-07-28T00:00:37;2.13;;;1.42;;
50789;SDS011;37287;47.554;7.844;2023-07-28T00:03:10;2.25;;;1.40;;
50789;SDS011;37287;47.554;7.844;2023-07-28T00:05:49;1.33;;;1.17;;
50789;SDS011;37287;47.554;7.844;2023-07-28T00:08:15;1.70;;;1.40;;
50789;SDS011;37287;47.554;7.844;2023-07-28T00:10:42;1.33;;;1.23;;
50789;SDS011;37287;47.554;7.844;2023-07-28T00:13:09;2.63;;;1.50;;
50789;SDS011;37287;47.554;7.844;2023-07-28T00:15:36;2.20;;;1.50;;
50789;SDS011;37287;47.554;7.844;2023-07-28T00:18:03;1.73;;;1.35;;
50789;SDS011;37287;47.554;7.844;2023-07-28T00:20:31;2.95;;;1.40;;
50789;SDS011;37287;47.554;7.844;2023-07-28T00:22:58;1.40;;;1.30;;
50789;SDS011;37287;47.554;7.844;2023-07-28T00:25:25;1.95;;;1.50;;
50789;SDS011;37287;47.554;7.844;2023-07-28T00:28:05;1.38;;;1.15;;
50789;SDS011;37287;47.554;7.844;2023-07-28T00:30:31;1.40;;;1.30;;
50789;SDS011;37287;47.554;7.844;2023-07-28T00:32:58;1.38;;;1.27;;
50789;SDS011;37287;47.554;7.844;2023-07-28T00:35:27;1.40;;;1.30;;
50789;SDS011;37287;47.554;7.844;2023-07-28T00:37:54;1.50;;;1.40;;
50789;SDS011;37287;47.554;7.844;2023-07-28T00:40:21;1.73;;;1.60;;
50789;SDS011;37287;47.554;7.844;2023-07-28T00:42:49;5.35;;;1.80;;
50789;SDS011;37287;47.554;7.844;2023-07-28T00:45:18;1.45;;;1.35;;
50789;SDS011;37287;47.554;7.844;2023-07-28T00:47:45;2.78;;;1.50;;
50789;SDS011;37287;47.554;7.844;2023-07-28T00:50:12;1.63;;;1.52;;
50789;SDS011;37287;47.554;7.844;2023-07-28T00:52:39;1.45;;;1.30;;
50789;SDS011;37287;47.554;7.844;2023-07-28T00:55:06;1.70;;;1.60;;
50789;SDS011;37287;47.554;7.844;2023-07-28T00:57:35;1.67;;;1.58;;
50789;SDS011;37287;47.554;7.844;2023-07-28T01:00:02;1.65;;;1.55;;
50789;SDS011;37287;47.554;7.844;2023-07-28T01:02:29;1.88;;;1.50;;
50789;SDS011;37287;47.554;7.844;2023-07-28T01:04:56;4.00;;;1.38;;
50789;SDS011;37287;47.554;7.844;2023-07-28T01:12:50;1.40;;;1.30;;
50789;SDS011;37287;47.554;7.844;2023-07-28T01:15:20;1.60;;;1.50;;
50789;SDS011;37287;47.554;7.844;2023-07-28T01:17:49;1.13;;;1.13;;
50789;SDS011;37287;47.554;7.844;2023-07-28T01:20:18;3.50;;;1.55;;
50789;SDS011;37287;47.554;7.844;2023-07-28T01:28:26;1.60;;;1.50;;
50789;SDS011;37287;47.554;7.844;2023-07-28T01:31:03;2.78;;;1.60;;
50789;SDS011;37287;47.554;7.844;2023-07-28T01:33:31;1.95;;;1.60;;
50789;SDS011;37287;47.554;7.844;2023-07-28T01:35:58;1.40;;;1.40;;
50789;SDS011;37287;47.554;7.844;2023-07-28T01:38:27;2.10;;;1.80;;
50789;SDS011;37287;47.554;7.844;2023-07-28T01:40:54;1.50;;;1.40;;
50789;SDS011;37287;47.554;7.844;2023-07-28T01:43:21;1.65;;;1.40;;
50789;SDS011;37287;47.554;7.844;2023-07-28T01:45:49;2.53;;;1.60;;
50789;SDS011;37287;47.554;7.844;2023-07-28T01:48:18;1.65;;;1.50;;
50789;SDS011;37287;47.554;7.844;2023-07-28T01:50:45;2.38;;;1.65;;
50789;SDS011;37287;47.554;7.844;2023-07-28T01:53:11;3.05;;;1.70;;
50789;SDS011;37287;47.554;7.844;2023-07-28T01:55:38;1.88;;;1.77;;
50789;SDS011;37287;47.554;7.844;2023-07-28T01:58:05;2.30;;;1.70;;
50789;SDS011;37287;47.554;7.844;2023-07-28T02:00:33;1.63;;;1.52;;
50789;SDS011;37287;47.554;7.844;2023-07-28T02:03:00;2.05;;;1.83;;
50789;SDS011;37287;47.554;7.844;2023-07-28T02:05:29;3.65;;;1.67;;
50789;SDS011;37287;47.554;7.844;2023-07-28T02:08:09;1.90;;;1.80;;
50789;SDS011;37287;47.554;7.844;2023-07-28T02:10:35;3.03;;;1.90;;
50789;SDS011;37287;47.554;7.844;2023-07-28T02:13:05;2.20;;;1.80;;
50789;SDS011;37287;47.554;7.844;2023-07-28T02:15:34;2.95;;;1.77;;
50789;SDS011;37287;47.554;7.844;2023-07-28T02:18:00;4.05;;;1.90;;
50789;SDS011;37287;47.554;7.844;2023-07-28T02:20:27;2.00;;;1.73;;
50789;SDS011;37287;47.554;7.844;2023-07-28T02:22:54;2.17;;;1.98;;
50789;SDS011;37287;47.554;7.844;2023-07-28T02:25:20;2.15;;;2.00;;
50789;SDS011;37287;47.554;7.844;2023-07-28T02:27:47;2.25;;;2.05;;
50789;SDS011;37287;47.554;7.844;2023-07-28T02:30:28;3.28;;;2.38;;
50789;SDS011;37287;47.554;7.844;2023-07-28T02:32:54;7.60;;;1.85;;
50789;SDS011;37287;47.554;7.844;2023-07-28T02:35:21;2.85;;;2.30;;
50789;SDS011;37287;47.554;7.844;2023-07-28T02:37:57;2.00;;;1.83;;
50789;SDS011;37287;47.554;7.844;2023-07-28T02:40:24;2.05;;;1.90;;
50789;SDS011;37287;47.554;7.844;2023-07-28T02:42:51;2.88;;;1.80;;
50789;SDS011;37287;47.554;7.844;2023-07-28T02:45:31;3.42;;;2.20;;
50789;SDS011;37287;47.554;7.844;2023-07-28T02:47:57;2.40;;;2.08;;
50789;SDS011;37287;47.554;7.844;2023-07-28T02:50:26;2.35;;;2.15;;
50789;SDS011;37287;47.554;7.844;2023-07-28T02:52:53;2.67;;;2.33;;
50789;SDS011;37287;47.554;7.844;2023-07-28T02:55:22;2.25;;;2.05;;
50789;SDS011;37287;47.554;7.844;2023-07-28T02:57:48;2.78;;;2.38;;
50789;SDS011;37287;47.554;7.844;2023-07-28T03:00:17;2.78;;;2.08;;
50789;SDS011;37287;47.554;7.844;2023-07-28T03:02:43;4.13;;;2.20;;
50789;SDS011;37287;47.554;7.844;2023-07-28T03:05:10;3.20;;;2.20;;
50789;SDS011;37287;47.554;7.844;2023-07-28T03:07:48;2.65;;;2.33;;
50789;SDS011;37287;47.554;7.844;2023-07-28T03:10:15;2.80;;;2.33;;
50789;SDS011;37287;47.554;7.844;2023-07-28T03:12:44;2.47;;;2.28;;
50789;SDS011;37287;47.554;7.844;2023-07-28T03:15:11;2.83;;;2.30;;
50789;SDS011;37287;47.554;7.844;2023-07-28T03:17:38;2.83;;;2.47;;
50789;SDS011;37287;47.554;7.844;2023-07-28T03:20:11;3.10;;;2.30;;
50789;SDS011;37287;47.554;7.844;2023-07-28T03:22:37;2.38;;;2.00;;
50789;SDS011;37287;47.554;7.844;2023-07-28T03:25:04;2.20;;;2.00;;
50789;SDS011;37287;47.554;7.844;2023-07-28T03:27:31;3.13;;;2.15;;
50789;SDS011;37287;47.554;7.844;2023-07-28T03:30:00;2.30;;;2.10;;
50789;SDS011;37287;47.554;7.844;2023-07-28T03:32:27;3.17;;;2.30;;
50789;SDS011;37287;47.554;7.844;2023-07-28T03:34:53;2.15;;;1.95;;
50789;SDS011;37287;47.554;7.844;2023-07-28T03:37:20;2.08;;;1.98;;
50789;SDS011;37287;47.554;7.844;2023-07-28T03:39:49;2.72;;;2.40;;
50789;SDS011;37287;47.554;7.844;2023-07-28T03:42:16;2.35;;;1.88;;
50789;SDS011;37287;47.554;7.844;2023-07-28T03:44:44;2.03;;;1.92;;
50789;SDS011;37287;47.554;7.844;2023-07-28T03:47:11;2.13;;;2.00;;
50789;SDS011;37287;47.554;7.844;2023-07-28T03:49:40;2.28;;;2.00;;
50789;SDS011;37287;47.554;7.844;2023-07-28T03:52:06;2.30;;;2.08;;
50789;SDS011;37287;47.554;7.844;2023-07-28T03:54:33;2.45;;;2.20;;
50789;SDS011;37287;47.554;7.844;2023-07-28T03:57:00;2.90;;;1.98;;
50789;SDS011;37287;47.554;7.844;2023-07-28T03:59:37;2.40;;;2.05;;
50789;SDS011;37287;47.554;7.844;2023-07-28T04:02:04;2.22;;;1.95;;
50789;SDS011;37287;47.554;7.844;2023-07-28T04:04:31;2.20;;;2.00;;
50789;SDS011;37287;47.554;7.844;2023-07-28T04:07:00;1.85;;;1.75;;
50789;SDS011;37287;47.554;7.844;2023-07-28T04:09:26;1.77;;;1.67;;
50789;SDS011;37287;47.554;7.844;2023-07-28T04:11:53;1.90;;;1.80;;
50789;SDS011;37287;47.554;7.844;2023-07-28T04:14:21;5.53;;;1.63;;
50789;SDS011;37287;47.554;7.844;2023-07-28T04:16:48;1.63;;;1.52;;
50789;SDS011;37287;47.554;7.844;2023-07-28T04:19:14;1.70;;;1.60;;
50789;SDS011;37287;47.554;7.844;2023-07-28T04:21:45;1.50;;;1.40;;
50789;SDS011;37287;47.554;7.844;2023-07-28T04:24:12;1.80;;;1.70;;
50789;SDS011;37287;47.554;7.844;2023-07-28T04:26:38;1.50;;;1.40;;
50789;SDS011;37287;47.554;7.844;2023-07-28T04:29:05;1.50;;;1.40;;
50789;SDS011;37287;47.554;7.844;2023-07-28T04:31:32;2.65;;;1.80;;
50789;SDS011;37287;47.554;7.844;2023-07-28T04:33:59;1.77;;;1.52;;
50789;SDS011;37287;47.554;7.844;2023-07-28T04:36:27;5.05;;;1.70;;
50789;SDS011;37287;47.554;7.844;2023-07-28T04:38:54;1.58;;;1.48;;
50789;SDS011;37287;47.554;7.844;2023-07-28T04:41:21;3.33;;;1.63;;
50789;SDS011;37287;47.554;7.844;2023-07-28T04:43:57;1.92;;;1.48;;
50789;SDS011;37287;47.554;7.844;2023-07-28T04:46:23;1.52;;;1.42;;
50789;SDS011;37287;47.554;7.844;2023-07-28T04:48:53;1.30;;;1.30;;
50789;SDS011;37287;47.554;7.844;2023-07-28T04:51:20;1.27;;;1.20;;
50789;SDS011;37287;47.554;7.844;2023-07-28T04:53:47;1.30;;;1.20;;
50789;SDS011;37287;47.554;7.844;2023-07-28T04:56:14;1.10;;;1.10;;
50789;SDS011;37287;47.554;7.844;2023-07-28T04:58:40;1.45;;;1.35;;
50789;SDS011;37287;47.554;7.844;2023-07-28T05:01:07;1.45;;;1.10;;
50789;SDS011;37287;47.554;7.844;2023-07-28T05:03:35;1.10;;;1.00;;
50789;SDS011;37287;47.554;7.844;2023-07-28T05:06:04;1.42;;;1.23;;
50789;SDS011;37287;47.554;7.844;2023-07-28T05:08:31;1.17;;;1.10;;
50789;SDS011;37287;47.554;7.844;2023-07-28T05:11:01;0.90;;;0.90;;
50789;SDS011;37287;47.554;7.844;2023-07-28T05:13:27;1.35;;;1.15;;
50789;SDS011;37287;47.554;7.844;2023-07-28T05:15:54;0.90;;;0.90;;
50789;SDS011;37287;47.554;7.844;2023-07-28T05:18:20;1.13;;;1.02;;
50789;SDS011;37287;47.554;7.844;2023-07-28T05:20:47;1.10;;;1.10;;
50789;SDS011;37287;47.554;7.844;2023-07-28T05:23:14;1.33;;;1.23;;
50789;SDS011;37287;47.554;7.844;2023-07-28T05:26:00;2.08;;;1.25;;
50789;SDS011;37287;47.554;7.844;2023-07-28T05:28:26;1.15;;;1.05;;
50789;SDS011;37287;47.554;7.844;2023-07-28T05:31:02;1.05;;;1.05;;
50789;SDS011;37287;47.554;7.844;2023-07-28T05:33:31;1.13;;;1.13;;
50789;SDS011;37287;47.554;7.844;2023-07-28T05:36:04;1.05;;;1.05;;
50789;SDS011;37287;47.554;7.844;2023-07-28T05:38:31;1.35;;;1.25;;
50789;SDS011;37287;47.554;7.844;2023-07-28T05:40:58;1.77;;;1.17;;
50789;SDS011;37287;47.554;7.844;2023-07-28T05:43:27;1.60;;;1.48;;
50789;SDS011;37287;47.554;7.844;2023-07-28T05:45:54;1.38;;;1.27;;
50789;SDS011;37287;47.554;7.844;2023-07-28T05:48:29;1.20;;;1.10;;
50789;SDS011;37287;47.554;7.844;2023-07-28T05:50:56;0.90;;;0.90;;
50789;SDS011;37287;47.554;7.844;2023-07-28T05:53:23;0.98;;;0.98;;
50789;SDS011;37287;47.554;7.844;2023-07-28T05:55:51;1.48;;;1.25;;
50789;SDS011;37287;47.554;7.844;2023-07-28T05:58:22;2.13;;;1.13;;
50789;SDS011;37287;47.554;7.844;2023-07-28T06:00:49;0.90;;;0.90;;
50789;SDS011;37287;47.554;7.844;2023-07-28T06:03:16;0.90;;;0.90;;
50789;SDS011;37287;47.554;7.844;2023-07-28T06:05:42;2.35;;;1.02;;
50789;SDS011;37287;47.554;7.844;2023-07-28T06:08:11;1.30;;;1.20;;
50789;SDS011;37287;47.554;7.844;2023-07-28T06:10:37;0.90;;;0.90;;
50789;SDS011;37287;47.554;7.844;2023-07-28T06:13:04;0.90;;;0.90;;
50789;SDS011;37287;47.554;7.844;2023-07-28T06:15:31;1.20;;;1.20;;
50789;SDS011;37287;47.554;7.844;2023-07-28T06:17:57;1.25;;;1.10;;
50789;SDS011;37287;47.554;7.844;2023-07-28T06:20:25;2.03;;;1.10;;
50789;SDS011;37287;47.554;7.844;2023-07-28T06:22:51;1.15;;;1.10;;
50789;SDS011;37287;47.554;7.844;2023-07-28T06:25:19;1.02;;;1.00;;
50789;SDS011;37287;47.554;7.844;2023-07-28T06:27:47;1.63;;;1.02;;
50789;SDS011;37287;47.554;7.844;2023-07-28T06:30:14;1.40;;;1.10;;
50789;SDS011;37287;47.554;7.844;2023-07-28T06:32:42;1.20;;;1.10;;
50789;SDS011;37287;47.554;7.844;2023-07-28T06:35:09;2.47;;;1.40;;
50789;SDS011;37287;47.554;7.844;2023-07-28T06:37:36;1.08;;;1.08;;
50789;SDS011;37287;47.554;7.844;2023-07-28T06:40:15;1.10;;;1.10;;
50789;SDS011;37287;47.554;7.844;2023-07-28T06:42:42;1.98;;;1.35;;
50789;SDS011;37287;47.554;7.844;2023-07-28T06:45:09;1.30;;;1.20;;
50789;SDS011;37287;47.554;7.844;2023-07-28T06:47:36;0.95;;;0.95;;
50789;SDS011;37287;47.554;7.844;2023-07-28T06:50:04;1.58;;;1.25;;
50789;SDS011;37287;47.554;7.844;2023-07-28T06:52:31;1.10;;;1.10;;
50789;SDS011;37287;47.554;7.844;2023-07-28T06:54:58;1.40;;;1.10;;
50789;SDS011;37287;47.554;7.844;2023-07-28T06:57:25;1.52;;;1.42;;
50789;SDS011;37287;47.554;7.844;2023-07-28T06:59:51;1.55;;;1.45;;
50789;SDS011;37287;47.554;7.844;2023-07-28T07:02:27;1.10;;;1.10;;
50789;SDS011;37287;47.554;7.844;2023-07-28T07:04:54;1.20;;;1.10;;
50789;SDS011;37287;47.554;7.844;2023-07-28T07:07:25;1.00;;;0.90;;
50789;SDS011;37287;47.554;7.844;2023-07-28T07:09:56;1.38;;;1.20;;
50789;SDS011;37287;47.554;7.844;2023-07-28T07:12:23;1.50;;;1.25;;
50789;SDS011;37287;47.554;7.844;2023-07-28T07:14:49;0.95;;;0.95;;
50789;SDS011;37287;47.554;7.844;2023-07-28T07:17:16;1.10;;;1.10;;
50789;SDS011;37287;47.554;7.844;2023-07-28T07:19:42;1.10;;;1.00;;
50789;SDS011;37287;47.554;7.844;2023-07-28T07:22:10;1.30;;;1.20;;
50789;SDS011;37287;47.554;7.844;2023-07-28T07:24:49;1.10;;;1.00;;
50789;SDS011;37287;47.554;7.844;2023-07-28T07:27:16;1.25;;;1.10;;
50789;SDS011;37287;47.554;7.844;2023-07-28T07:29:43;1.70;;;1.05;;
50789;SDS011;37287;47.554;7.844;2023-07-28T07:32:09;1.85;;;1.10;;
50789;SDS011;37287;47.554;7.844;2023-07-28T07:34:37;1.30;;;1.20;;
50789;SDS011;37287;47.554;7.844;2023-07-28T07:37:04;1.23;;;1.13;;
50789;SDS011;37287;47.554;7.844;2023-07-28T07:39:31;1.20;;;1.10;;
50789;SDS011;37287;47.554;7.844;2023-07-28T07:41:58;1.20;;;1.08;;
50789;SDS011;37287;47.554;7.844;2023-07-28T07:44:25;0.90;;;0.90;;
50789;SDS011;37287;47.554;7.844;2023-07-28T07:46:53;1.35;;;1.15;;
50789;SDS011;37287;47.554;7.844;2023-07-28T07:49:21;1.23;;;1.15;;
50789;SDS011;37287;47.554;7.844;2023-07-28T07:51:50;0.80;;;0.80;;
50789;SDS011;37287;47.554;7.844;2023-07-28T07:54:16;1.27;;;1.17;;
50789;SDS011;37287;47.554;7.844;2023-07-28T07:56:46;1.48;;;1.10;;
50789;SDS011;37287;47.554;7.844;2023-07-28T07:59:13;2.85;;;1.50;;
50789;SDS011;37287;47.554;7.844;2023-07-28T08:01:40;0.93;;;0.93;;
50789;SDS011;37287;47.554;7.844;2023-07-28T08:04:14;1.70;;;1.00;;
50789;SDS011;37287;47.554;7.844;2023-07-28T08:06:41;0.90;;;0.90;;
50789;SDS011;37287;47.554;7.844;2023-07-28T08:09:09;2.13;;;1.30;;
50789;SDS011;37287;47.554;7.844;2023-07-28T08:11:36;1.15;;;1.05;;
50789;SDS011;37287;47.554;7.844;2023-07-28T08:14:03;1.13;;;1.10;;
50789;SDS011;37287;47.554;7.844;2023-07-28T08:16:29;1.23;;;0.90;;
50789;SDS011;37287;47.554;7.844;2023-07-28T08:19:05;1.02;;;1.02;;
50789;SDS011;37287;47.554;7.844;2023-07-28T08:21:32;1.50;;;1.23;;
50789;SDS011;37287;47.554;7.844;2023-07-28T08:24:03;0.95;;;0.93;;
50789;SDS011;37287;47.554;7.844;2023-07-28T08:26:30;1.40;;;1.30;;
50789;SDS011;37287;47.554;7.844;2023-07-28T08:28:57;1.08;;;1.08;;
50789;SDS011;37287;47.554;7.844;2023-07-28T08:31:23;1.25;;;1.15;;
50789;SDS011;37287;47.554;7.844;2023-07-28T08:33:52;1.48;;;0.90;;
50789;SDS011;37287;47.554;7.844;2023-07-28T08:36:18;1.10;;;1.00;;
50789;SDS011;37287;47.554;7.844;2023-07-28T08:38:45;1.25;;;1.00;;
50789;SDS011;37287;47.554;7.844;2023-07-28T08:41:27;1.20;;;1.10;;
50789;SDS011;37287;47.554;7.844;2023-07-28T08:43:54;2.38;;;1.02;;
50789;SDS011;37287;47.554;7.844;2023-07-28T08:46:20;1.33;;;1.08;;
50789;SDS011;37287;47.554;7.844;2023-07-28T08:48:49;1.00;;;0.88;;
50789;SDS011;37287;47.554;7.844;2023-07-28T08:51:16;1.05;;;0.90;;
50789;SDS011;37287;47.554;7.844;2023-07-28T08:53:43;1.30;;;1.25;;
50789;SDS011;37287;47.554;7.844;2023-07-28T08:56:11;0.90;;;0.90;;
50789;SDS011;37287;47.554;7.844;2023-07-28T08:58:37;1.42;;;1.33;;
50789;SDS011;37287;47.554;7.844;2023-07-28T09:01:05;1.30;;;1.20;;
50789;SDS011;37287;47.554;7.844;2023-07-28T09:03:41;2.10;;;1.23;;
50789;SDS011;37287;47.554;7.844;2023-07-28T09:06:08;2.05;;;1.20;;
50789;SDS011;37287;47.554;7.844;2023-07-28T09:08:35;1.10;;;1.10;;
50789;SDS011;37287;47.554;7.844;2023-07-28T09:11:05;1.40;;;1.30;;
50789;SDS011;37287;47.554;7.844;2023-07-28T09:13:43;1.48;;;1.38;;
50789;SDS011;37287;47.554;7.844;2023-07-28T09:16:18;1.08;;;1.00;;
50789;SDS011;37287;47.554;7.844;2023-07-28T09:18:46;4.10;;;1.38;;
50789;SDS011;37287;47.554;7.844;2023-07-28T09:21:17;2.70;;;1.75;;
50789;SDS011;37287;47.554;7.844;2023-07-28T09:23:47;1.27;;;1.20;;
50789;SDS011;37287;47.554;7.844;2023-07-28T09:26:16;1.45;;;1.35;;
50789;SDS011;37287;47.554;7.844;2023-07-28T09:28:44;1.40;;;1.30;;
50789;SDS011;37287;47.554;7.844;2023-07-28T09:31:10;1.42;;;1.33;;
50789;SDS011;37287;47.554;7.844;2023-07-28T09:33:39;2.42;;;1.38;;
50789;SDS011;37287;47.554;7.844;2023-07-28T09:36:12;1.63;;;1.50;;
50789;SDS011;37287;47.554;7.844;2023-07-28T09:38:43;1.33;;;1.23;;
50789;SDS011;37287;47.554;7.844;2023-07-28T09:41:10;1.20;;;1.10;;
50789;SDS011;37287;47.554;7.844;2023-07-28T09:43:38;1.10;;;1.05;;
50789;SDS011;37287;47.554;7.844;2023-07-28T09:46:08;1.20;;;1.20;;
50789;SDS011;37287;47.554;7.844;2023-07-28T09:48:39;1.52;;;1.42;;
50789;SDS011;37287;47.554;7.844;2023-07-28T09:51:12;1.00;;;1.00;;
50789;SDS011;37287;47.554;7.844;2023-07-28T09:53:46;2.95;;;1.30;;
50789;SDS011;37287;47.554;7.844;2023-07-28T09:56:17;1.40;;;1.30;;
50789;SDS011;37287;47.554;7.844;2023-07-28T09:58:49;1.23;;;1.20;;
50789;SDS011;37287;47.554;7.844;2023-07-28T10:01:18;1.52;;;1.42;;
50789;SDS011;37287;47.554;7.844;2023-07-28T10:03:47;1.40;;;1.30;;
50789;SDS011;37287;47.554;7.844;2023-07-28T10:06:15;1.40;;;1.30;;
50789;SDS011;37287;47.554;7.844;2023-07-28T10:08:43;1.50;;;1.40;;
50789;SDS011;37287;47.554;7.844;2023-07-28T10:11:19;1.40;;;1.30;;
50789;SDS011;37287;47.554;7.844;2023-07-28T10:13:47;1.60;;;1.50;;
50789;SDS011;37287;47.554;7.844;2023-07-28T10:16:15;2.28;;;1.30;;
50789;SDS011;37287;47.554;7.844;2023-07-28T10:18:53;3.83;;;1.48;;
50789;SDS011;37287;47.554;7.844;2023-07-28T10:21:20;1.58;;;1.48;;
50789;SDS011;37287;47.554;7.844;2023-07-28T10:23:54;2.42;;;1.55;;
50789;SDS011;37287;47.554;7.844;2023-07-28T10:26:36;1.50;;;1.40;;
50789;SDS011;37287;47.554;7.844;2023-07-28T10:29:08;1.52;;;1.42;;
50789;SDS011;37287;47.554;7.844;2023-07-28T10:31:52;1.27;;;1.17;;
50789;SDS011;37287;47.554;7.844;2023-07-28T10:34:24;1.95;;;1.50;;
50789;SDS011;37287;47.554;7.844;2023-07-28T10:36:58;1.15;;;1.10;;
50789;SDS011;37287;47.554;7.844;2023-07-28T10:39:26;1.23;;;1.23;;
50789;SDS011;37287;47.554;7.844;2023-07-28T10:42:02;1.60;;;1.20;;
50789;SDS011;37287;47.554;7.844;2023-07-28T10:44:31;1.40;;;1.30;;
50789;SDS011;37287;47.554;7.844;2023-07-28T10:46:59;1.90;;;1.25;;
50789;SDS011;37287;47.554;7.844;2023-07-28T10:49:25;1.90;;;1.42;;
50789;SDS011;37287;47.554;7.844;2023-07-28T10:51:53;1.63;;;1.30;;
50789;SDS011;37287;47.554;7.844;2023-07-28T10:54:22;1.25;;;1.20;;
50789;SDS011;37287;47.554;7.844;2023-07-28T10:56:48;2.15;;;1.40;;
50789;SDS011;37287;47.554;7.844;2023-07-28T10:59:17;1.50;;;1.38;;
50789;SDS011;37287;47.554;7.844;2023-07-28T11:01:43;2.00;;;1.30;;
50789;SDS011;37287;47.554;7.844;2023-07-28T11:04:47;1.25;;;1.15;;
50789;SDS011;37287;47.554;7.844;2023-07-28T11:07:14;1.00;;;1.00;;
50789;SDS011;37287;47.554;7.844;2023-07-28T11:10:04;2.75;;;1.48;;
50789;SDS011;37287;47.554;7.844;2023-07-28T11:12:58;1.63;;;1.20;;
50789;SDS011;37287;47.554;7.844;2023-07-28T11:15:57;1.00;;;1.00;;
50789;SDS011;37287;47.554;7.844;2023-07-28T11:18:48;1.52;;;1.17;;
50789;SDS011;37287;47.554;7.844;2023-07-28T11:21:39;1.35;;;1.25;;
50789;SDS011;37287;47.554;7.844;2023-07-28T11:24:20;2.67;;;1.35;;
50789;SDS011;37287;47.554;7.844;2023-07-28T11:27:11;2.58;;;1.00;;
50789;SDS011;37287;47.554;7.844;2023-07-28T11:30:06;1.88;;;1.30;;
50789;SDS011;37287;47.554;7.844;2023-07-28T11:33:02;1.77;;;1.40;;
50789;SDS011;37287;47.554;7.844;2023-07-28T11:35:52;1.63;;;1.45;;
50789;SDS011;37287;47.554;7.844;2023-07-28T11:38:43;1.30;;;1.20;;
50789;SDS011;37287;47.554;7.844;2023-07-28T11:41:39;2.85;;;1.23;;
50789;SDS011;37287;47.554;7.844;2023-07-28T11:44:34;6.82;;;1.40;;
50789;SDS011;37287;47.554;7.844;2023-07-28T11:47:31;1.40;;;1.30;;
50789;SDS011;37287;47.554;7.844;2023-07-28T11:50:27;3.55;;;1.40;;
50789;SDS011;37287;47.554;7.844;2023-07-28T11:53:22;1.75;;;1.60;;
50789;SDS011;37287;47.554;7.844;2023-07-28T11:56:15;2.40;;;1.50;;
50789;SDS011;37287;47.554;7.844;2023-07-28T11:59:05;1.52;;;1.42;;
50789;SDS011;37287;47.554;7.844;2023-07-28T12:02:03;5.30;;;1.50;;
50789;SDS011;37287;47.554;7.844;2023-07-28T12:04:55;1.70;;;1.50;;
50789;SDS011;37287;47.554;7.844;2023-07-28T12:07:48;2.53;;;1.30;;
50789;SDS011;37287;47.554;7.844;2023-07-28T12:10:50;2.97;;;1.67;;
50789;SDS011;37287;47.554;7.844;2023-07-28T12:13:48;1.70;;;1.60;;
50789;SDS011;37287;47.554;7.844;2023-07-28T12:16:47;1.65;;;1.40;;
50789;SDS011;37287;47.554;7.844;2023-07-28T12:19:41;2.13;;;1.60;;
50789;SDS011;37287;47.554;7.844;2023-07-28T12:22:32;1.52;;;1.42;;
50789;SDS011;37287;47.554;7.844;2023-07-28T12:25:26;2.53;;;1.60;;
50789;SDS011;37287;47.554;7.844;2023-07-28T12:28:18;3.13;;;1.50;;
50789;SDS011;37287;47.554;7.844;2023-07-28T12:31:08;3.70;;;1.58;;
50789;SDS011;37287;47.554;7.844;2023-07-28T12:34:02;1.70;;;1.50;;
50789;SDS011;37287;47.554;7.844;2023-07-28T12:36:54;1.45;;;1.35;;
50789;SDS011;37287;47.554;7.844;2023-07-28T12:39:44;2.63;;;1.50;;
50789;SDS011;37287;47.554;7.844;2023-07-28T12:42:34;1.70;;;1.50;;
50789;SDS011;37287;47.554;7.844;2023-07-28T12:45:28;2.67;;;1.70;;
50789;SDS011;37287;47.554;7.844;2023-07-28T12:48:18;1.77;;;1.60;;
50789;SDS011;37287;47.554;7.844;2023-07-28T12:51:10;2.00;;;1.65;;
50789;SDS011;37287;47.554;7.844;2023-07-28T12:54:01;2.08;;;1.60;;
50789;SDS011;37287;47.554;7.844;2023-07-28T12:57:00;1.77;;;1.55;;
50789;SDS011;37287;47.554;7.844;2023-07-28T12:59:52;3.03;;;1.80;;
50789;SDS011;37287;47.554;7.844;2023-07-28T13:02:48;3.30;;;1.52;;
50789;SDS011;37287;47.554;7.844;2023-07-28T13:05:42;1.63;;;1.48;;
50789;SDS011;37287;47.554;7.844;2023-07-28T13:08:33;2.03;;;1.83;;
50789;SDS011;37287;47.554;7.844;2023-07-28T13:11:25;1.70;;;1.50;;
50789;SDS011;37287;47.554;7.844;2023-07-28T13:14:16;1.52;;;1.42;;
50789;SDS011;37287;47.554;7.844;2023-07-28T13:17:12;1.80;;;1.70;;
50789;SDS011;37287;47.554;7.844;2023-07-28T13:20:05;2.10;;;1.60;;
50789;SDS011;37287;47.554;7.844;2023-07-28T13:22:55;2.63;;;1.52;;
50789;SDS011;37287;47.554;7.844;2023-07-28T13:25:50;2.50;;;1.70;;
50789;SDS011;37287;47.554;7.844;2023-07-28T13:28:40;1.90;;;1.60;;
50789;SDS011;37287;47.554;7.844;2023-07-28T13:31:25;3.35;;;1.80;;
50789;SDS011;37287;47.554;7.844;2023-07-28T13:33:58;1.75;;;1.40;;
50789;SDS011;37287;47.554;7.844;2023-07-28T13:36:25;1.70;;;1.60;;
50789;SDS011;37287;47.554;7.844;2023-07-28T13:38:52;2.85;;;1.60;;
50789;SDS011;37287;47.554;7.844;2023-07-28T13:41:48;3.93;;;1.80;;
50789;SDS011;37287;47.554;7.844;2023-07-28T13:44:39;2.03;;;1.83;;
50789;SDS011;37287;47.554;7.844;2023-07-28T13:47:30;1.90;;;1.70;;
50789;SDS011;37287;47.554;7.844;2023-07-28T13:50:21;1.60;;;1.50;;
50789;SDS011;37287;47.554;7.844;2023-07-28T13:53:37;2.00;;;1.60;;
50789;SDS011;37287;47.554;7.844;2023-07-28T13:56:32;1.77;;;1.67;;
50789;SDS011;37287;47.554;7.844;2023-07-28T13:59:25;3.70;;;1.52;;
50789;SDS011;37287;47.554;7.844;2023-07-28T14:02:08;2.97;;;1.52;;
50789;SDS011;37287;47.554;7.844;2023-07-28T14:04:40;1.67;;;1.50;;
50789;SDS011;37287;47.554;7.844;2023-07-28T14:07:31;1.60;;;1.50;;
50789;SDS011;37287;47.554;7.844;2023-07-28T14:10:17;1.50;;;1.40;;
50789;SDS011;37287;47.554;7.844;2023-07-28T14:13:07;2.42;;;1.38;;
50789;SDS011;37287;47.554;7.844;2023-07-28T14:15:47;1.52;;;1.42;;
50789;SDS011;37287;47.554;7.844;2023-07-28T14:18:14;1.50;;;1.40;;
50789;SDS011;37287;47.554;7.844;2023-07-28T14:20:40;1.70;;;1.60;;
50789;SDS011;37287;47.554;7.844;2023-07-28T14:23:35;1.50;;;1.23;;
50789;SDS011;37287;47.554;7.844;2023-07-28T14:26:25;1.35;;;1.25;;
50789;SDS011;37287;47.554;7.844;2023-07-28T14:29:19;2.35;;;1.40;;
50789;SDS011;37287;47.554;7.844;2023-07-28T14:32:10;2.03;;;1.45;;
50789;SDS011;37287;47.554;7.844;2023-07-28T14:35:00;2.15;;;1.50;;
50789;SDS011;37287;47.554;7.844;2023-07-28T14:37:44;1.80;;;1.65;;
50789;SDS011;37287;47.554;7.844;2023-07-28T14:40:22;1.60;;;1.50;;
50789;SDS011;37287;47.554;7.844;2023-07-28T14:43:12;2.30;;;2.10;;
50789;SDS011;37287;47.554;7.844;2023-07-28T14:46:09;1.70;;;1.60;;
50789;SDS011;37287;47.554;7.844;2023-07-28T14:48:38;1.67;;;1.50;;
50789;SDS011;37287;47.554;7.844;2023-07-28T14:51:10;1.63;;;1.52;;
50789;SDS011;37287;47.554;7.844;2023-07-28T14:54:04;2.60;;;1.33;;
50789;SDS011;37287;47.554;7.844;2023-07-28T14:56:56;1.20;;;1.10;;
50789;SDS011;37287;47.554;7.844;2023-07-28T14:59:46;1.23;;;1.13;;
50789;SDS011;37287;47.554;7.844;2023-07-28T15:02:41;1.15;;;1.05;;
50789;SDS011;37287;47.554;7.844;2023-07-28T15:05:36;3.15;;;1.10;;
50789;SDS011;37287;47.554;7.844;2023-07-28T15:08:27;1.02;;;1.02;;
50789;SDS011;37287;47.554;7.844;2023-07-28T15:10:53;1.38;;;1.27;;
50789;SDS011;37287;47.554;7.844;2023-07-28T15:13:20;1.40;;;1.13;;
50789;SDS011;37287;47.554;7.844;2023-07-28T15:16:08;1.25;;;1.10;;
50789;SDS011;37287;47.554;7.844;2023-07-28T15:18:35;1.90;;;1.10;;
50789;SDS011;37287;47.554;7.844;2023-07-28T15:21:01;1.20;;;1.20;;
50789;SDS011;37287;47.554;7.844;2023-07-28T15:23:45;1.10;;;1.10;;
50789;SDS011;37287;47.554;7.844;2023-07-28T15:26:19;1.08;;;1.08;;
50789;SDS011;37287;47.554;7.844;2023-07-28T15:29:15;1.02;;;1.02;;
50789;SDS011;37287;47.554;7.844;2023-07-28T15:32:06;1.38;;;1.27;;
50789;SDS011;37287;47.554;7.844;2023-07-28T15:34:57;1.02;;;1.00;;
50789;SDS011;37287;47.554;7.844;2023-07-28T15:37:37;2.88;;;1.20;;
50789;SDS011;37287;47.554;7.844;2023-07-28T15:40:04;1.10;;;1.10;;